Flughafen Paderborn/Lippstadt

Aus VATSIM Germany
Dies ist die bestätigte Version dieser Seite, allerdings nicht deren neueste Version. Die neueste Version ansehen.
Wechseln zu:Navigation, Suche
UnderCon icon.svg.pngDieser Artikel ist noch im Aufbau. Der Artikel kann daher unvollständig sein oder Fehler enthalten!


Paderborn Lippstadt Airport
ICAO / IATA EDLP / PAD
Koordinaten N51°36′51″  E008°36′59″
Höhe 213 m / 699 ft
Wetter EDLP 171450Z 27004KT 180V320 CAVOK 17/13 Q1015
Pisten
Platzfrequenzen
Nur für Flugsimulationszwecke!



Informationen für Piloten und Lotsen
Pilotenbriefing

Standard Operating Procedures (SOP)

Letters of Agreement (LoAs)

Vorlage:Chartbox


Vorlage:Navigationsleiste Flughäfen EDLL